sensor_id;sensor_type;location;lat;lon;timestamp;P1;durP1;ratioP1;P2;durP2;ratioP2
5060;SDS011;2549;52.128;21.068;2022-09-17T00:01:36;3.40;;;2.20;;
5060;SDS011;2549;52.128;21.068;2022-09-17T00:04:03;2.50;;;1.97;;
5060;SDS011;2549;52.128;21.068;2022-09-17T00:06:31;5.10;;;2.37;;
5060;SDS011;2549;52.128;21.068;2022-09-17T00:09:00;4.10;;;2.40;;
5060;SDS011;2549;52.128;21.068;2022-09-17T00:11:29;2.70;;;2.20;;
5060;SDS011;2549;52.128;21.068;2022-09-17T00:13:58;1.60;;;1.50;;
5060;SDS011;2549;52.128;21.068;2022-09-17T00:16:31;2.03;;;1.83;;
5060;SDS011;2549;52.128;21.068;2022-09-17T00:19:01;5.03;;;2.50;;
5060;SDS011;2549;52.128;21.068;2022-09-17T00:21:29;4.03;;;2.57;;
5060;SDS011;2549;52.128;21.068;2022-09-17T00:23:57;2.70;;;2.30;;
5060;SDS011;2549;52.128;21.068;2022-09-17T00:26:26;2.70;;;2.50;;
5060;SDS011;2549;52.128;21.068;2022-09-17T00:28:54;3.73;;;2.10;;
5060;SDS011;2549;52.128;21.068;2022-09-17T00:31:22;3.37;;;1.93;;
5060;SDS011;2549;52.128;21.068;2022-09-17T00:33:50;4.90;;;2.03;;
5060;SDS011;2549;52.128;21.068;2022-09-17T00:36:17;2.40;;;2.17;;
5060;SDS011;2549;52.128;21.068;2022-09-17T00:38:49;7.83;;;2.30;;
5060;SDS011;2549;52.128;21.068;2022-09-17T00:41:17;4.40;;;2.17;;
5060;SDS011;2549;52.128;21.068;2022-09-17T00:43:46;3.93;;;1.70;;
5060;SDS011;2549;52.128;21.068;2022-09-17T00:46:36;3.07;;;2.00;;
5060;SDS011;2549;52.128;21.068;2022-09-17T00:51:40;3.33;;;2.17;;
5060;SDS011;2549;52.128;21.068;2022-09-17T00:54:23;2.50;;;1.97;;
5060;SDS011;2549;52.128;21.068;2022-09-17T00:56:51;2.20;;;2.00;;
5060;SDS011;2549;52.128;21.068;2022-09-17T00:59:18;6.00;;;2.63;;
5060;SDS011;2549;52.128;21.068;2022-09-17T01:01:46;7.83;;;2.77;;
5060;SDS011;2549;52.128;21.068;2022-09-17T01:04:17;1.80;;;1.70;;
5060;SDS011;2549;52.128;21.068;2022-09-17T01:06:47;4.10;;;2.17;;
5060;SDS011;2549;52.128;21.068;2022-09-17T01:09:26;6.83;;;2.13;;
5060;SDS011;2549;52.128;21.068;2022-09-17T01:23:40;2.90;;;1.70;;
5060;SDS011;2549;52.128;21.068;2022-09-17T01:32:20;2.23;;;2.13;;
5060;SDS011;2549;52.128;21.068;2022-09-17T01:40:20;4.27;;;2.17;;
5060;SDS011;2549;52.128;21.068;2022-09-17T01:42:56;2.97;;;1.93;;
5060;SDS011;2549;52.128;21.068;2022-09-17T01:45:44;2.10;;;1.93;;
5060;SDS011;2549;52.128;21.068;2022-09-17T01:48:17;2.03;;;1.70;;
5060;SDS011;2549;52.128;21.068;2022-09-17T01:53:24;2.33;;;2.13;;
5060;SDS011;2549;52.128;21.068;2022-09-17T01:55:56;5.80;;;2.37;;
5060;SDS011;2549;52.128;21.068;2022-09-17T01:58:25;4.63;;;2.17;;
5060;SDS011;2549;52.128;21.068;2022-09-17T02:01:05;4.57;;;2.80;;
5060;SDS011;2549;52.128;21.068;2022-09-17T02:03:47;8.80;;;2.37;;
5060;SDS011;2549;52.128;21.068;2022-09-17T02:06:23;3.40;;;2.20;;
5060;SDS011;2549;52.128;21.068;2022-09-17T02:08:56;5.03;;;2.50;;
5060;SDS011;2549;52.128;21.068;2022-09-17T02:11:27;5.30;;;2.00;;
5060;SDS011;2549;52.128;21.068;2022-09-17T02:13:59;2.90;;;2.23;;
5060;SDS011;2549;52.128;21.068;2022-09-17T02:16:42;4.00;;;1.73;;
5060;SDS011;2549;52.128;21.068;2022-09-17T02:19:17;2.13;;;1.70;;
5060;SDS011;2549;52.128;21.068;2022-09-17T02:25:19;3.93;;;2.10;;
5060;SDS011;2549;52.128;21.068;2022-09-17T02:30:28;4.07;;;1.97;;
5060;SDS011;2549;52.128;21.068;2022-09-17T02:32:57;6.30;;;2.50;;
5060;SDS011;2549;52.128;21.068;2022-09-17T02:35:26;3.60;;;2.60;;
5060;SDS011;2549;52.128;21.068;2022-09-17T02:37:55;3.37;;;2.03;;
5060;SDS011;2549;52.128;21.068;2022-09-17T02:40:22;3.53;;;2.00;;
5060;SDS011;2549;52.128;21.068;2022-09-17T02:48:36;2.97;;;2.43;;
5060;SDS011;2549;52.128;21.068;2022-09-17T02:51:35;3.77;;;2.43;;
5060;SDS011;2549;52.128;21.068;2022-09-17T02:57:02;2.00;;;1.90;;
5060;SDS011;2549;52.128;21.068;2022-09-17T03:00:00;4.63;;;2.47;;
5060;SDS011;2549;52.128;21.068;2022-09-17T03:02:38;2.70;;;2.50;;
5060;SDS011;2549;52.128;21.068;2022-09-17T03:05:13;2.80;;;2.00;;
5060;SDS011;2549;52.128;21.068;2022-09-17T03:07:42;4.33;;;2.03;;
5060;SDS011;2549;52.128;21.068;2022-09-17T03:10:09;4.13;;;2.63;;
5060;SDS011;2549;52.128;21.068;2022-09-17T03:12:36;3.47;;;2.47;;
5060;SDS011;2549;52.128;21.068;2022-09-17T03:15:04;4.60;;;1.80;;
5060;SDS011;2549;52.128;21.068;2022-09-17T03:17:31;3.57;;;2.83;;
5060;SDS011;2549;52.128;21.068;2022-09-17T03:19:58;1.90;;;1.80;;
5060;SDS011;2549;52.128;21.068;2022-09-17T03:22:25;2.20;;;2.00;;
5060;SDS011;2549;52.128;21.068;2022-09-17T03:24:52;2.50;;;1.67;;
5060;SDS011;2549;52.128;21.068;2022-09-17T03:27:19;3.23;;;2.30;;
5060;SDS011;2549;52.128;21.068;2022-09-17T03:29:46;2.87;;;2.67;;
5060;SDS011;2549;52.128;21.068;2022-09-17T03:32:12;2.70;;;2.43;;
5060;SDS011;2549;52.128;21.068;2022-09-17T03:34:39;3.20;;;2.53;;
5060;SDS011;2549;52.128;21.068;2022-09-17T03:37:06;3.53;;;2.27;;
5060;SDS011;2549;52.128;21.068;2022-09-17T03:39:33;3.53;;;2.33;;
5060;SDS011;2549;52.128;21.068;2022-09-17T03:42:00;3.10;;;2.23;;
5060;SDS011;2549;52.128;21.068;2022-09-17T03:44:27;6.13;;;2.20;;
5060;SDS011;2549;52.128;21.068;2022-09-17T03:46:53;1.77;;;1.60;;
5060;SDS011;2549;52.128;21.068;2022-09-17T03:49:20;3.80;;;1.87;;
5060;SDS011;2549;52.128;21.068;2022-09-17T03:51:49;4.60;;;1.90;;
5060;SDS011;2549;52.128;21.068;2022-09-17T03:54:16;2.20;;;2.00;;
5060;SDS011;2549;52.128;21.068;2022-09-17T03:56:43;2.10;;;1.90;;
5060;SDS011;2549;52.128;21.068;2022-09-17T03:59:09;4.50;;;2.47;;
5060;SDS011;2549;52.128;21.068;2022-09-17T04:01:36;4.30;;;2.40;;
5060;SDS011;2549;52.128;21.068;2022-09-17T04:04:04;6.25;;;2.05;;
5060;SDS011;2549;52.128;21.068;2022-09-17T04:06:30;2.30;;;1.90;;
5060;SDS011;2549;52.128;21.068;2022-09-17T04:08:57;2.87;;;2.40;;
5060;SDS011;2549;52.128;21.068;2022-09-17T04:11:26;4.23;;;2.30;;
5060;SDS011;2549;52.128;21.068;2022-09-17T04:13:52;4.50;;;2.10;;
5060;SDS011;2549;52.128;21.068;2022-09-17T04:16:19;4.95;;;3.00;;
5060;SDS011;2549;52.128;21.068;2022-09-17T04:18:46;3.47;;;2.27;;
5060;SDS011;2549;52.128;21.068;2022-09-17T04:21:13;2.30;;;2.10;;
5060;SDS011;2549;52.128;21.068;2022-09-17T04:23:40;12.10;;;2.20;;
5060;SDS011;2549;52.128;21.068;2022-09-17T04:26:07;3.23;;;2.40;;
5060;SDS011;2549;52.128;21.068;2022-09-17T04:28:33;2.70;;;1.77;;
5060;SDS011;2549;52.128;21.068;2022-09-17T04:31:00;3.47;;;2.50;;
5060;SDS011;2549;52.128;21.068;2022-09-17T04:33:27;6.40;;;4.10;;
5060;SDS011;2549;52.128;21.068;2022-09-17T04:35:54;2.60;;;2.40;;
5060;SDS011;2549;52.128;21.068;2022-09-17T04:38:21;1.93;;;1.83;;
5060;SDS011;2549;52.128;21.068;2022-09-17T04:40:48;4.47;;;1.77;;
5060;SDS011;2549;52.128;21.068;2022-09-17T04:43:16;4.90;;;2.63;;
5060;SDS011;2549;52.128;21.068;2022-09-17T04:45:46;6.10;;;2.20;;
5060;SDS011;2549;52.128;21.068;2022-09-17T04:48:14;2.37;;;2.20;;
5060;SDS011;2549;52.128;21.068;2022-09-17T04:50:41;4.87;;;2.30;;
5060;SDS011;2549;52.128;21.068;2022-09-17T04:53:08;2.90;;;2.60;;
5060;SDS011;2549;52.128;21.068;2022-09-17T04:55:35;4.30;;;2.53;;
5060;SDS011;2549;52.128;21.068;2022-09-17T04:58:02;3.30;;;2.20;;
5060;SDS011;2549;52.128;21.068;2022-09-17T05:00:29;4.20;;;2.47;;
5060;SDS011;2549;52.128;21.068;2022-09-17T05:02:56;6.20;;;2.40;;
5060;SDS011;2549;52.128;21.068;2022-09-17T05:05:23;5.60;;;2.58;;
5060;SDS011;2549;52.128;21.068;2022-09-17T05:07:50;3.23;;;2.17;;
5060;SDS011;2549;52.128;21.068;2022-09-17T05:10:18;4.37;;;2.10;;
5060;SDS011;2549;52.128;21.068;2022-09-17T05:12:50;4.40;;;2.50;;
5060;SDS011;2549;52.128;21.068;2022-09-17T05:15:18;6.13;;;2.37;;
5060;SDS011;2549;52.128;21.068;2022-09-17T05:17:46;4.83;;;2.57;;
5060;SDS011;2549;52.128;21.068;2022-09-17T05:20:13;3.73;;;1.90;;
5060;SDS011;2549;52.128;21.068;2022-09-17T05:22:44;2.43;;;2.17;;
5060;SDS011;2549;52.128;21.068;2022-09-17T05:25:17;4.77;;;2.50;;
5060;SDS011;2549;52.128;21.068;2022-09-17T05:27:45;6.47;;;2.47;;
5060;SDS011;2549;52.128;21.068;2022-09-17T05:30:12;2.47;;;2.10;;
5060;SDS011;2549;52.128;21.068;2022-09-17T05:32:39;6.73;;;2.30;;
5060;SDS011;2549;52.128;21.068;2022-09-17T05:35:06;2.10;;;2.00;;
5060;SDS011;2549;52.128;21.068;2022-09-17T05:37:34;2.83;;;2.13;;
5060;SDS011;2549;52.128;21.068;2022-09-17T05:40:03;3.60;;;2.40;;
5060;SDS011;2549;52.128;21.068;2022-09-17T05:42:32;2.20;;;1.92;;
5060;SDS011;2549;52.128;21.068;2022-09-17T05:44:59;2.20;;;2.10;;
5060;SDS011;2549;52.128;21.068;2022-09-17T05:47:26;4.50;;;2.47;;
5060;SDS011;2549;52.128;21.068;2022-09-17T05:49:53;2.50;;;1.83;;
5060;SDS011;2549;52.128;21.068;2022-09-17T05:52:20;3.67;;;2.60;;
5060;SDS011;2549;52.128;21.068;2022-09-17T05:54:46;1.90;;;1.80;;
5060;SDS011;2549;52.128;21.068;2022-09-17T05:57:13;2.53;;;1.90;;
5060;SDS011;2549;52.128;21.068;2022-09-17T05:59:44;5.57;;;2.10;;
5060;SDS011;2549;52.128;21.068;2022-09-17T06:02:11;3.80;;;1.70;;
5060;SDS011;2549;52.128;21.068;2022-09-17T06:04:39;1.80;;;1.43;;
5060;SDS011;2549;52.128;21.068;2022-09-17T06:07:06;1.90;;;1.63;;
5060;SDS011;2549;52.128;21.068;2022-09-17T06:09:37;5.77;;;1.90;;
5060;SDS011;2549;52.128;21.068;2022-09-17T06:12:05;4.70;;;1.60;;
5060;SDS011;2549;52.128;21.068;2022-09-17T06:14:32;4.33;;;2.00;;
5060;SDS011;2549;52.128;21.068;2022-09-17T06:16:59;4.60;;;2.17;;
5060;SDS011;2549;52.128;21.068;2022-09-17T06:19:26;2.80;;;1.63;;
5060;SDS011;2549;52.128;21.068;2022-09-17T06:21:53;2.10;;;1.67;;
5060;SDS011;2549;52.128;21.068;2022-09-17T06:24:20;2.27;;;1.63;;
5060;SDS011;2549;52.128;21.068;2022-09-17T06:26:47;1.60;;;1.50;;
5060;SDS011;2549;52.128;21.068;2022-09-17T06:29:14;3.03;;;1.60;;
5060;SDS011;2549;52.128;21.068;2022-09-17T06:31:41;1.47;;;1.37;;
5060;SDS011;2549;52.128;21.068;2022-09-17T06:34:10;1.30;;;1.20;;
5060;SDS011;2549;52.128;21.068;2022-09-17T06:36:37;2.80;;;1.40;;
5060;SDS011;2549;52.128;21.068;2022-09-17T06:39:04;3.93;;;1.33;;
5060;SDS011;2549;52.128;21.068;2022-09-17T06:41:32;2.80;;;1.37;;
5060;SDS011;2549;52.128;21.068;2022-09-17T06:43:59;1.87;;;1.33;;
5060;SDS011;2549;52.128;21.068;2022-09-17T06:46:27;6.87;;;1.30;;
5060;SDS011;2549;52.128;21.068;2022-09-17T06:48:54;1.20;;;1.20;;
5060;SDS011;2549;52.128;21.068;2022-09-17T06:51:21;2.60;;;1.47;;
5060;SDS011;2549;52.128;21.068;2022-09-17T06:53:48;5.43;;;1.30;;
5060;SDS011;2549;52.128;21.068;2022-09-17T06:56:15;3.50;;;1.30;;
5060;SDS011;2549;52.128;21.068;2022-09-17T06:58:43;3.10;;;1.33;;
5060;SDS011;2549;52.128;21.068;2022-09-17T07:01:10;4.30;;;1.50;;
5060;SDS011;2549;52.128;21.068;2022-09-17T07:03:38;6.17;;;1.97;;
5060;SDS011;2549;52.128;21.068;2022-09-17T07:06:08;1.80;;;1.47;;
5060;SDS011;2549;52.128;21.068;2022-09-17T07:08:36;3.60;;;1.40;;
5060;SDS011;2549;52.128;21.068;2022-09-17T07:11:03;7.70;;;1.77;;
5060;SDS011;2549;52.128;21.068;2022-09-17T07:13:30;3.57;;;1.70;;
5060;SDS011;2549;52.128;21.068;2022-09-17T07:15:58;6.83;;;1.20;;
5060;SDS011;2549;52.128;21.068;2022-09-17T07:18:26;4.70;;;1.80;;
5060;SDS011;2549;52.128;21.068;2022-09-17T07:21:00;3.80;;;1.70;;
5060;SDS011;2549;52.128;21.068;2022-09-17T07:23:29;3.27;;;1.37;;
5060;SDS011;2549;52.128;21.068;2022-09-17T07:25:59;7.60;;;1.77;;
5060;SDS011;2549;52.128;21.068;2022-09-17T07:28:37;1.37;;;1.30;;
5060;SDS011;2549;52.128;21.068;2022-09-17T07:31:04;4.83;;;1.50;;
5060;SDS011;2549;52.128;21.068;2022-09-17T07:33:35;2.77;;;1.80;;
5060;SDS011;2549;52.128;21.068;2022-09-17T07:36:04;1.37;;;1.10;;
5060;SDS011;2549;52.128;21.068;2022-09-17T07:38:43;1.63;;;1.00;;
5060;SDS011;2549;52.128;21.068;2022-09-17T07:41:11;2.93;;;1.10;;
5060;SDS011;2549;52.128;21.068;2022-09-17T07:43:39;1.30;;;1.20;;
5060;SDS011;2549;52.128;21.068;2022-09-17T07:46:07;3.03;;;1.50;;
5060;SDS011;2549;52.128;21.068;2022-09-17T07:48:43;4.30;;;1.93;;
5060;SDS011;2549;52.128;21.068;2022-09-17T07:51:15;20.40;;;1.60;;
5060;SDS011;2549;52.128;21.068;2022-09-17T07:53:49;2.03;;;1.50;;
5060;SDS011;2549;52.128;21.068;2022-09-17T07:56:20;3.23;;;1.27;;
5060;SDS011;2549;52.128;21.068;2022-09-17T07:58:47;5.03;;;1.33;;
5060;SDS011;2549;52.128;21.068;2022-09-17T08:01:14;3.00;;;1.60;;
5060;SDS011;2549;52.128;21.068;2022-09-17T08:03:46;5.77;;;1.10;;
5060;SDS011;2549;52.128;21.068;2022-09-17T08:06:15;2.23;;;1.50;;
5060;SDS011;2549;52.128;21.068;2022-09-17T08:08:43;3.03;;;1.30;;
5060;SDS011;2549;52.128;21.068;2022-09-17T08:11:11;2.10;;;1.90;;
5060;SDS011;2549;52.128;21.068;2022-09-17T08:13:49;2.30;;;1.53;;
5060;SDS011;2549;52.128;21.068;2022-09-17T08:16:17;1.37;;;1.10;;
5060;SDS011;2549;52.128;21.068;2022-09-17T08:18:46;1.90;;;1.53;;
5060;SDS011;2549;52.128;21.068;2022-09-17T08:21:16;1.47;;;1.17;;
5060;SDS011;2549;52.128;21.068;2022-09-17T08:23:43;4.43;;;1.53;;
5060;SDS011;2549;52.128;21.068;2022-09-17T08:26:20;2.97;;;1.20;;
5060;SDS011;2549;52.128;21.068;2022-09-17T08:28:49;1.73;;;1.30;;
5060;SDS011;2549;52.128;21.068;2022-09-17T08:31:21;1.37;;;1.13;;
5060;SDS011;2549;52.128;21.068;2022-09-17T08:33:49;3.67;;;1.10;;
5060;SDS011;2549;52.128;21.068;2022-09-17T08:36:17;3.00;;;1.70;;
5060;SDS011;2549;52.128;21.068;2022-09-17T08:38:45;6.70;;;1.70;;
5060;SDS011;2549;52.128;21.068;2022-09-17T08:44:04;1.20;;;1.10;;
5060;SDS011;2549;52.128;21.068;2022-09-17T08:46:50;8.17;;;1.23;;
5060;SDS011;2549;52.128;21.068;2022-09-17T08:54:45;1.33;;;1.27;;
5060;SDS011;2549;52.128;21.068;2022-09-17T09:00:20;2.10;;;1.10;;
5060;SDS011;2549;52.128;21.068;2022-09-17T09:05:41;2.20;;;1.83;;
5060;SDS011;2549;52.128;21.068;2022-09-17T09:08:16;1.27;;;1.27;;
5060;SDS011;2549;52.128;21.068;2022-09-17T09:10:54;1.77;;;1.30;;
5060;SDS011;2549;52.128;21.068;2022-09-17T09:13:24;1.57;;;1.47;;
5060;SDS011;2549;52.128;21.068;2022-09-17T09:15:58;4.33;;;1.27;;
5060;SDS011;2549;52.128;21.068;2022-09-17T09:18:45;1.30;;;1.30;;
5060;SDS011;2549;52.128;21.068;2022-09-17T09:26:45;3.90;;;1.10;;
5060;SDS011;2549;52.128;21.068;2022-09-17T09:34:20;1.93;;;1.20;;
5060;SDS011;2549;52.128;21.068;2022-09-17T09:36:49;0.80;;;0.80;;
5060;SDS011;2549;52.128;21.068;2022-09-17T09:39:24;3.20;;;1.20;;
5060;SDS011;2549;52.128;21.068;2022-09-17T09:42:37;3.70;;;1.17;;
5060;SDS011;2549;52.128;21.068;2022-09-17T09:56:50;1.00;;;0.90;;
5060;SDS011;2549;52.128;21.068;2022-09-17T09:59:25;1.70;;;1.40;;
5060;SDS011;2549;52.128;21.068;2022-09-17T10:01:52;1.17;;;1.07;;
5060;SDS011;2549;52.128;21.068;2022-09-17T10:04:20;2.40;;;1.00;;
5060;SDS011;2549;52.128;21.068;2022-09-17T10:09:33;1.00;;;1.00;;
5060;SDS011;2549;52.128;21.068;2022-09-17T10:12:03;1.00;;;1.00;;
5060;SDS011;2549;52.128;21.068;2022-09-17T10:14:40;0.97;;;0.97;;
5060;SDS011;2549;52.128;21.068;2022-09-17T10:17:19;1.17;;;1.10;;
5060;SDS011;2549;52.128;21.068;2022-09-17T10:22:37;2.00;;;1.07;;
5060;SDS011;2549;52.128;21.068;2022-09-17T10:30:58;3.20;;;1.10;;
5060;SDS011;2549;52.128;21.068;2022-09-17T10:33:33;1.00;;;1.00;;
5060;SDS011;2549;52.128;21.068;2022-09-17T10:36:11;1.53;;;1.07;;
5060;SDS011;2549;52.128;21.068;2022-09-17T10:38:40;4.03;;;0.90;;
5060;SDS011;2549;52.128;21.068;2022-09-17T10:41:12;1.33;;;0.97;;
5060;SDS011;2549;52.128;21.068;2022-09-17T10:43:41;1.17;;;1.07;;
5060;SDS011;2549;52.128;21.068;2022-09-17T10:46:10;1.00;;;0.90;;
5060;SDS011;2549;52.128;21.068;2022-09-17T10:48:41;1.67;;;1.57;;
5060;SDS011;2549;52.128;21.068;2022-09-17T10:51:20;2.00;;;1.17;;
5060;SDS011;2549;52.128;21.068;2022-09-17T10:54:33;2.10;;;1.10;;
5060;SDS011;2549;52.128;21.068;2022-09-17T10:56:41;1.27;;;1.20;;
5060;SDS011;2549;52.128;21.068;2022-09-17T10:59:21;3.50;;;0.80;;
5060;SDS011;2549;52.128;21.068;2022-09-17T11:07:38;1.67;;;1.27;;
5060;SDS011;2549;52.128;21.068;2022-09-17T11:13:06;2.70;;;1.30;;
5060;SDS011;2549;52.128;21.068;2022-09-17T11:21:17;1.03;;;0.90;;
5060;SDS011;2549;52.128;21.068;2022-09-17T11:27:07;3.60;;;1.30;;
5060;SDS011;2549;52.128;21.068;2022-09-17T11:35:16;1.10;;;1.00;;
5060;SDS011;2549;52.128;21.068;2022-09-17T11:37:57;3.60;;;1.47;;
5060;SDS011;2549;52.128;21.068;2022-09-17T11:45:39;1.00;;;1.00;;
5060;SDS011;2549;52.128;21.068;2022-09-17T11:48:15;0.93;;;0.93;;
5060;SDS011;2549;52.128;21.068;2022-09-17T12:01:45;1.13;;;0.90;;
5060;SDS011;2549;52.128;21.068;2022-09-17T12:10:24;1.17;;;1.07;;
5060;SDS011;2549;52.128;21.068;2022-09-17T12:12:59;1.17;;;1.07;;
5060;SDS011;2549;52.128;21.068;2022-09-17T12:15:42;1.43;;;1.10;;
5060;SDS011;2549;52.128;21.068;2022-09-17T12:18:26;1.80;;;1.10;;
5060;SDS011;2549;52.128;21.068;2022-09-17T12:21:12;1.00;;;1.00;;
5060;SDS011;2549;52.128;21.068;2022-09-17T12:31:57;1.00;;;0.90;;
5060;SDS011;2549;52.128;21.068;2022-09-17T12:41:18;0.93;;;0.93;;
5060;SDS011;2549;52.128;21.068;2022-09-17T12:52:35;2.20;;;0.80;;
5060;SDS011;2549;52.128;21.068;2022-09-17T13:03:56;0.90;;;0.90;;
5060;SDS011;2549;52.128;21.068;2022-09-17T13:10:02;2.57;;;1.50;;
5060;SDS011;2549;52.128;21.068;2022-09-17T13:21:53;0.97;;;0.97;;
5060;SDS011;2549;52.128;21.068;2022-09-17T13:24:29;0.90;;;0.90;;
5060;SDS011;2549;52.128;21.068;2022-09-17T13:26:57;0.80;;;0.80;;
5060;SDS011;2549;52.128;21.068;2022-09-17T13:37:42;1.60;;;1.10;;
5060;SDS011;2549;52.128;21.068;2022-09-17T13:40:26;1.33;;;1.23;;
5060;SDS011;2549;52.128;21.068;2022-09-17T13:42:56;0.70;;;0.70;;
5060;SDS011;2549;52.128;21.068;2022-09-17T13:45:24;0.83;;;0.83;;
5060;SDS011;2549;52.128;21.068;2022-09-17T13:50:29;1.90;;;1.20;;
5060;SDS011;2549;52.128;21.068;2022-09-17T13:58:21;1.10;;;1.10;;
5060;SDS011;2549;52.128;21.068;2022-09-17T14:16:33;2.90;;;1.20;;
5060;SDS011;2549;52.128;21.068;2022-09-17T14:22:19;1.23;;;1.20;;
5060;SDS011;2549;52.128;21.068;2022-09-17T14:24:52;1.67;;;1.20;;
5060;SDS011;2549;52.128;21.068;2022-09-17T14:27:43;0.90;;;0.90;;
5060;SDS011;2549;52.128;21.068;2022-09-17T14:35:19;1.70;;;1.60;;
5060;SDS011;2549;52.128;21.068;2022-09-17T14:37:51;4.10;;;1.70;;
5060;SDS011;2549;52.128;21.068;2022-09-17T14:40:43;2.40;;;1.57;;
5060;SDS011;2549;52.128;21.068;2022-09-17T14:43:17;1.43;;;1.33;;
5060;SDS011;2549;52.128;21.068;2022-09-17T14:45:59;5.70;;;1.37;;
5060;SDS011;2549;52.128;21.068;2022-09-17T14:48:30;1.83;;;1.67;;
5060;SDS011;2549;52.128;21.068;2022-09-17T14:53:44;1.77;;;1.67;;
5060;SDS011;2549;52.128;21.068;2022-09-17T14:56:16;5.23;;;2.67;;
5060;SDS011;2549;52.128;21.068;2022-09-17T14:58:48;1.77;;;1.67;;
5060;SDS011;2549;52.128;21.068;2022-09-17T15:01:25;1.30;;;1.30;;
5060;SDS011;2549;52.128;21.068;2022-09-17T15:06:38;1.90;;;1.80;;
5060;SDS011;2549;52.128;21.068;2022-09-17T15:11:50;5.80;;;1.77;;
5060;SDS011;2549;52.128;21.068;2022-09-17T15:14:21;2.47;;;2.27;;
5060;SDS011;2549;52.128;21.068;2022-09-17T15:16:57;6.70;;;1.60;;
5060;SDS011;2549;52.128;21.068;2022-09-17T15:19:30;1.80;;;1.70;;
5060;SDS011;2549;52.128;21.068;2022-09-17T15:22:08;12.23;;;1.70;;
5060;SDS011;2549;52.128;21.068;2022-09-17T15:27:26;2.77;;;1.77;;
5060;SDS011;2549;52.128;21.068;2022-09-17T15:32:29;1.60;;;1.40;;
5060;SDS011;2549;52.128;21.068;2022-09-17T15:37:43;1.73;;;1.63;;
5060;SDS011;2549;52.128;21.068;2022-09-17T15:40:40;1.57;;;1.47;;
5060;SDS011;2549;52.128;21.068;2022-09-17T15:43:26;1.93;;;1.70;;
5060;SDS011;2549;52.128;21.068;2022-09-17T15:46:23;1.70;;;1.60;;
5060;SDS011;2549;52.128;21.068;2022-09-17T15:48:52;1.47;;;1.43;;
5060;SDS011;2549;52.128;21.068;2022-09-17T15:53:59;1.60;;;1.50;;
5060;SDS011;2549;52.128;21.068;2022-09-17T15:56:30;2.23;;;1.90;;
5060;SDS011;2549;52.128;21.068;2022-09-17T15:59:00;1.83;;;1.63;;
5060;SDS011;2549;52.128;21.068;2022-09-17T16:08:54;2.20;;;1.53;;
5060;SDS011;2549;52.128;21.068;2022-09-17T16:11:26;5.73;;;2.20;;
5060;SDS011;2549;52.128;21.068;2022-09-17T16:13:56;6.80;;;1.87;;
5060;SDS011;2549;52.128;21.068;2022-09-17T16:16:26;2.13;;;1.93;;
5060;SDS011;2549;52.128;21.068;2022-09-17T16:19:01;1.93;;;1.83;;
5060;SDS011;2549;52.128;21.068;2022-09-17T16:21:29;1.57;;;1.47;;
5060;SDS011;2549;52.128;21.068;2022-09-17T16:23:56;2.53;;;2.00;;
5060;SDS011;2549;52.128;21.068;2022-09-17T16:26:28;2.70;;;2.17;;
5060;SDS011;2549;52.128;21.068;2022-09-17T16:29:06;5.27;;;1.90;;
5060;SDS011;2549;52.128;21.068;2022-09-17T16:31:39;1.90;;;1.80;;
5060;SDS011;2549;52.128;21.068;2022-09-17T16:34:06;2.20;;;2.00;;
5060;SDS011;2549;52.128;21.068;2022-09-17T16:36:32;2.03;;;1.90;;
5060;SDS011;2549;52.128;21.068;2022-09-17T16:38:59;3.70;;;2.43;;
5060;SDS011;2549;52.128;21.068;2022-09-17T16:41:26;4.67;;;1.97;;
5060;SDS011;2549;52.128;21.068;2022-09-17T16:43:53;6.27;;;2.60;;
5060;SDS011;2549;52.128;21.068;2022-09-17T16:46:20;2.90;;;2.33;;
5060;SDS011;2549;52.128;21.068;2022-09-17T16:48:50;2.20;;;2.03;;
5060;SDS011;2549;52.128;21.068;2022-09-17T16:51:17;2.23;;;2.00;;
5060;SDS011;2549;52.128;21.068;2022-09-17T16:53:44;2.70;;;1.97;;
5060;SDS011;2549;52.128;21.068;2022-09-17T16:56:12;2.30;;;2.10;;
5060;SDS011;2549;52.128;21.068;2022-09-17T16:58:40;2.30;;;2.10;;
5060;SDS011;2549;52.128;21.068;2022-09-17T17:01:08;4.07;;;2.20;;
5060;SDS011;2549;52.128;21.068;2022-09-17T17:03:36;2.80;;;2.60;;
5060;SDS011;2549;52.128;21.068;2022-09-17T17:06:03;2.07;;;1.97;;
5060;SDS011;2549;52.128;21.068;2022-09-17T17:08:31;2.30;;;2.13;;
5060;SDS011;2549;52.128;21.068;2022-09-17T17:10:58;2.03;;;1.93;;
5060;SDS011;2549;52.128;21.068;2022-09-17T17:13:26;10.07;;;1.77;;
5060;SDS011;2549;52.128;21.068;2022-09-17T17:15:53;3.90;;;2.73;;
5060;SDS011;2549;52.128;21.068;2022-09-17T17:18:20;4.50;;;2.00;;
5060;SDS011;2549;52.128;21.068;2022-09-17T17:20:47;2.70;;;2.50;;
5060;SDS011;2549;52.128;21.068;2022-09-17T17:23:14;2.30;;;2.10;;
5060;SDS011;2549;52.128;21.068;2022-09-17T17:25:41;3.80;;;2.03;;
5060;SDS011;2549;52.128;21.068;2022-09-17T17:28:08;7.60;;;2.50;;
5060;SDS011;2549;52.128;21.068;2022-09-17T17:30:38;2.20;;;2.00;;
5060;SDS011;2549;52.128;21.068;2022-09-17T17:33:04;3.17;;;2.87;;
5060;SDS011;2549;52.128;21.068;2022-09-17T17:35:32;12.13;;;3.17;;
5060;SDS011;2549;52.128;21.068;2022-09-17T17:37:58;2.60;;;2.33;;
5060;SDS011;2549;52.128;21.068;2022-09-17T17:40:25;2.73;;;2.57;;
5060;SDS011;2549;52.128;21.068;2022-09-17T17:42:52;5.50;;;3.20;;
5060;SDS011;2549;52.128;21.068;2022-09-17T17:45:20;5.87;;;3.17;;
5060;SDS011;2549;52.128;21.068;2022-09-17T17:47:47;3.27;;;2.93;;
5060;SDS011;2549;52.128;21.068;2022-09-17T17:50:13;3.13;;;2.93;;
5060;SDS011;2549;52.128;21.068;2022-09-17T17:52:41;4.63;;;3.13;;
5060;SDS011;2549;52.128;21.068;2022-09-17T17:55:13;3.90;;;3.60;;
5060;SDS011;2549;52.128;21.068;2022-09-17T17:57:41;5.77;;;3.93;;
5060;SDS011;2549;52.128;21.068;2022-09-17T18:00:08;3.20;;;2.60;;
5060;SDS011;2549;52.128;21.068;2022-09-17T18:02:37;8.90;;;4.03;;
5060;SDS011;2549;52.128;21.068;2022-09-17T18:05:05;3.90;;;3.13;;
5060;SDS011;2549;52.128;21.068;2022-09-17T18:07:32;4.57;;;3.50;;
5060;SDS011;2549;52.128;21.068;2022-09-17T18:09:59;3.47;;;3.17;;
5060;SDS011;2549;52.128;21.068;2022-09-17T18:12:26;9.10;;;4.03;;
5060;SDS011;2549;52.128;21.068;2022-09-17T18:14:52;4.97;;;3.50;;
5060;SDS011;2549;52.128;21.068;2022-09-17T18:17:19;6.53;;;3.87;;
5060;SDS011;2549;52.128;21.068;2022-09-17T18:19:46;8.57;;;4.23;;
5060;SDS011;2549;52.128;21.068;2022-09-17T18:22:13;5.83;;;3.60;;
5060;SDS011;2549;52.128;21.068;2022-09-17T18:24:40;4.03;;;3.73;;
5060;SDS011;2549;52.128;21.068;2022-09-17T18:27:07;3.87;;;3.57;;
5060;SDS011;2549;52.128;21.068;2022-09-17T18:29:34;5.97;;;4.17;;
5060;SDS011;2549;52.128;21.068;2022-09-17T18:32:00;4.63;;;3.50;;
5060;SDS011;2549;52.128;21.068;2022-09-17T18:34:27;13.00;;;4.80;;
5060;SDS011;2549;52.128;21.068;2022-09-17T18:36:54;6.60;;;4.30;;
5060;SDS011;2549;52.128;21.068;2022-09-17T18:39:21;13.07;;;6.10;;
5060;SDS011;2549;52.128;21.068;2022-09-17T18:42:08;14.03;;;7.33;;
5060;SDS011;2549;52.128;21.068;2022-09-17T18:44:35;9.00;;;6.53;;
5060;SDS011;2549;52.128;21.068;2022-09-17T18:47:02;13.13;;;7.87;;
5060;SDS011;2549;52.128;21.068;2022-09-17T18:49:29;17.57;;;7.60;;
5060;SDS011;2549;52.128;21.068;2022-09-17T18:51:56;13.83;;;9.03;;
5060;SDS011;2549;52.128;21.068;2022-09-17T18:54:22;14.03;;;8.60;;
5060;SDS011;2549;52.128;21.068;2022-09-17T18:56:49;10.57;;;7.53;;
5060;SDS011;2549;52.128;21.068;2022-09-17T18:59:16;14.30;;;8.53;;
5060;SDS011;2549;52.128;21.068;2022-09-17T19:01:43;10.47;;;8.10;;
5060;SDS011;2549;52.128;21.068;2022-09-17T19:04:10;11.47;;;8.97;;
5060;SDS011;2549;52.128;21.068;2022-09-17T19:06:37;13.73;;;8.50;;
5060;SDS011;2549;52.128;21.068;2022-09-17T19:09:04;15.43;;;9.00;;
5060;SDS011;2549;52.128;21.068;2022-09-17T19:11:32;15.73;;;8.57;;
5060;SDS011;2549;52.128;21.068;2022-09-17T19:14:01;16.47;;;9.80;;
5060;SDS011;2549;52.128;21.068;2022-09-17T19:16:27;11.20;;;7.77;;
5060;SDS011;2549;52.128;21.068;2022-09-17T19:18:55;12.80;;;8.33;;
5060;SDS011;2549;52.128;21.068;2022-09-17T19:21:21;15.10;;;8.93;;
5060;SDS011;2549;52.128;21.068;2022-09-17T19:23:49;13.43;;;8.20;;
5060;SDS011;2549;52.128;21.068;2022-09-17T19:26:18;14.33;;;7.77;;
5060;SDS011;2549;52.128;21.068;2022-09-17T19:28:47;11.60;;;7.13;;